Time,TemperatureF,DewpointF,PressureIn,WindDirection,WindDirectionDegrees,WindSpeedMPH,WindSpeedGustMPH,Humidity,HourlyPrecipIn,Conditions,Clouds,dailyrainin,SolarRadiationWatts/m^2,SoftwareType,DateUTC
2013-06-27 00:12:00,71.0,65.0,-100.00,South,173,3.0,8.0,80,0.00,,,0.00,1.000000,,2013-06-27 05:12:00,
2013-06-27 00:22:00,71.0,65.0,-100.00,South,173,3.0,8.0,80,0.00,,,0.00,1.000000,,2013-06-27 05:22:00,
2013-06-27 00:32:00,71.0,65.0,-100.00,South,173,3.0,8.0,80,0.00,,,0.00,1.000000,,2013-06-27 05:32:00,
2013-06-27 00:42:00,71.0,65.0,-100.00,South,173,3.0,8.0,80,0.00,,,0.00,1.000000,,2013-06-27 05:42:00,
2013-06-27 01:12:00,71.0,69.0,-100.00,SW,219,3.0,5.0,94,0.00,,,0.00,1.000000,,2013-06-27 06:12:00,
2013-06-27 01:22:00,71.0,69.0,-100.00,SW,219,3.0,5.0,94,0.00,,,0.00,1.000000,,2013-06-27 06:22:00,
2013-06-27 01:34:00,71.0,69.0,-100.00,SW,219,3.0,5.0,94,0.00,,,0.00,1.000000,,2013-06-27 06:34:00,
2013-06-27 01:43:00,71.0,69.0,-100.00,SW,219,3.0,5.0,94,0.00,,,0.00,1.000000,,2013-06-27 06:43:00,
2013-06-27 02:12:00,69.0,69.0,-100.00,SW,223,4.0,5.0,99,0.00,,,0.00,1.000000,,2013-06-27 07:12:00,
2013-06-27 02:22:00,69.0,69.0,-100.00,SW,223,4.0,5.0,99,0.00,,,0.00,1.000000,,2013-06-27 07:22:00,
2013-06-27 02:33:00,69.0,69.0,-100.00,SW,223,4.0,5.0,99,0.00,,,0.00,1.000000,,2013-06-27 07:33:00,
2013-06-27 02:42:00,69.0,69.0,-100.00,SW,223,4.0,5.0,99,0.00,,,0.00,1.000000,,2013-06-27 07:42:00,
2013-06-27 03:11:00,68.0,68.0,-100.00,South,172,2.0,5.0,100,0.00,,,0.00,1.000000,,2013-06-27 08:11:00,
2013-06-27 03:22:00,68.0,68.0,-100.00,South,172,2.0,5.0,100,0.00,,,0.00,1.000000,,2013-06-27 08:22:00,
2013-06-27 03:34:00,68.0,68.0,-100.00,South,172,2.0,5.0,100,0.00,,,0.00,1.000000,,2013-06-27 08:34:00,
2013-06-27 03:43:00,68.0,68.0,-100.00,South,172,2.0,5.0,100,0.00,,,0.00,1.000000,,2013-06-27 08:43:00,
2013-06-27 04:11:00,68.0,68.0,-100.00,SW,214,3.0,6.0,100,0.00,,,0.00,1.000000,,2013-06-27 09:11:00,
2013-06-27 04:22:00,68.0,68.0,-100.00,SW,214,3.0,6.0,100,0.00,,,0.00,1.000000,,2013-06-27 09:22:00,
2013-06-27 04:34:00,68.0,68.0,-100.00,SW,214,3.0,6.0,100,0.00,,,0.00,1.000000,,2013-06-27 09:34:00,
2013-06-27 04:43:00,68.0,68.0,-100.00,SW,214,3.0,6.0,100,0.00,,,0.00,1.000000,,2013-06-27 09:43:00,
2013-06-27 05:11:00,68.0,68.0,-100.00,SSW,200,3.0,5.0,100,0.00,,,0.00,1.000000,,2013-06-27 10:11:00,
2013-06-27 05:22:00,68.0,68.0,-100.00,SSW,200,3.0,5.0,100,0.00,,,0.00,1.000000,,2013-06-27 10:22:00,
2013-06-27 05:32:00,68.0,68.0,-100.00,SSW,200,3.0,5.0,100,0.00,,,0.00,1.000000,,2013-06-27 10:32:00,
2013-06-27 05:44:00,68.0,68.0,-100.00,SSW,200,3.0,5.0,100,0.00,,,0.00,1.000000,,2013-06-27 10:44:00,
2013-06-27 06:11:00,69.0,69.0,-100.00,West,270,3.0,6.0,100,0.00,,,0.00,2.000000,,2013-06-27 11:11:00,
2013-06-27 06:22:00,69.0,69.0,-100.00,West,270,3.0,6.0,100,0.00,,,0.00,2.000000,,2013-06-27 11:22:00,
2013-06-27 06:33:00,69.0,69.0,-100.00,West,270,3.0,6.0,100,0.00,,,0.00,2.000000,,2013-06-27 11:33:00,
2013-06-27 06:43:00,69.0,69.0,-100.00,West,270,3.0,6.0,100,0.00,,,0.00,2.000000,,2013-06-27 11:43:00,
2013-06-27 07:11:00,71.0,71.0,-100.00,SW,215,4.0,5.0,100,0.00,,,0.00,73.000000,,2013-06-27 12:11:00,
2013-06-27 07:22:00,71.0,71.0,-100.00,SW,215,4.0,5.0,100,0.00,,,0.00,73.000000,,2013-06-27 12:22:00,
2013-06-27 07:34:00,71.0,71.0,-100.00,SW,215,4.0,5.0,100,0.00,,,0.00,73.000000,,2013-06-27 12:34:00,
2013-06-27 07:42:00,71.0,71.0,-100.00,SW,215,4.0,5.0,100,0.00,,,0.00,73.000000,,2013-06-27 12:42:00,
2013-06-27 08:11:00,76.0,71.0,-100.00,West,267,5.0,9.0,84,0.00,,,0.00,212.000000,,2013-06-27 13:11:00,
2013-06-27 08:22:00,76.0,71.0,-100.00,West,267,5.0,9.0,84,0.00,,,0.00,212.000000,,2013-06-27 13:22:00,
2013-06-27 08:34:00,76.0,71.0,-100.00,West,267,5.0,9.0,84,0.00,,,0.00,212.000000,,2013-06-27 13:34:00,
2013-06-27 08:43:00,76.0,71.0,-100.00,West,267,5.0,9.0,84,0.00,,,0.00,212.000000,,2013-06-27 13:43:00,
2013-06-27 09:11:00,78.0,67.0,-100.00,WNW,299,10.0,14.0,70,0.00,,,0.00,415.000000,,2013-06-27 14:11:00,
2013-06-27 09:22:00,78.0,67.0,-100.00,WNW,299,10.0,14.0,70,0.00,,,0.00,415.000000,,2013-06-27 14:22:00,
2013-06-27 09:33:00,78.0,67.0,-100.00,WNW,299,10.0,14.0,70,0.00,,,0.00,415.000000,,2013-06-27 14:33:00,
2013-06-27 09:43:00,78.0,67.0,-100.00,WNW,299,10.0,14.0,70,0.00,,,0.00,415.000000,,2013-06-27 14:43:00,
2013-06-27 10:12:00,78.0,64.0,-100.00,WNW,301,11.0,17.0,63,0.00,,,0.00,458.000000,,2013-06-27 15:12:00,
2013-06-27 10:22:00,78.0,64.0,-100.00,WNW,301,11.0,17.0,63,0.00,,,0.00,458.000000,,2013-06-27 15:22:00,
2013-06-27 10:33:00,78.0,64.0,-100.00,WNW,301,11.0,17.0,63,0.00,,,0.00,458.000000,,2013-06-27 15:33:00,
2013-06-27 10:42:00,78.0,64.0,-100.00,WNW,301,11.0,17.0,63,0.00,,,0.00,458.000000,,2013-06-27 15:42:00,
2013-06-27 11:11:00,81.0,65.0,-100.00,WNW,291,11.0,17.0,58,0.00,,,0.00,709.000000,,2013-06-27 16:11:00,
2013-06-27 11:23:00,81.0,65.0,-100.00,WNW,291,11.0,17.0,58,0.00,,,0.00,709.000000,,2013-06-27 16:23:00,
2013-06-27 11:34:00,81.0,65.0,-100.00,WNW,291,11.0,17.0,58,0.00,,,0.00,709.000000,,2013-06-27 16:34:00,
2013-06-27 11:43:00,81.0,65.0,-100.00,WNW,291,11.0,17.0,58,0.00,,,0.00,709.000000,,2013-06-27 16:43:00,
2013-06-27 12:11:00,84.0,64.0,-100.00,WNW,299,13.0,20.0,51,0.00,,,0.00,839.000000,,2013-06-27 17:11:00,
2013-06-27 12:22:00,84.0,64.0,-100.00,WNW,299,13.0,20.0,51,0.00,,,0.00,839.000000,,2013-06-27 17:22:00,
2013-06-27 12:33:00,84.0,64.0,-100.00,WNW,299,13.0,20.0,51,0.00,,,0.00,839.000000,,2013-06-27 17:33:00,
2013-06-27 12:43:00,84.0,64.0,-100.00,WNW,299,13.0,20.0,51,0.00,,,0.00,839.000000,,2013-06-27 17:43:00,
2013-06-27 13:12:00,84.0,61.0,-100.00,NW,306,14.0,22.0,46,0.00,,,0.00,891.000000,,2013-06-27 18:12:00,
2013-06-27 13:22:00,84.0,61.0,-100.00,NW,306,14.0,22.0,46,0.00,,,0.00,891.000000,,2013-06-27 18:22:00,
2013-06-27 13:32:00,84.0,61.0,-100.00,NW,306,14.0,22.0,46,0.00,,,0.00,891.000000,,2013-06-27 18:32:00,
2013-06-27 13:44:00,84.0,61.0,-100.00,NW,306,14.0,22.0,46,0.00,,,0.00,891.000000,,2013-06-27 18:44:00,
2013-06-27 14:11:00,85.0,57.0,-100.00,WNW,295,18.0,27.0,38,0.00,,,0.00,903.000000,,2013-06-27 19:11:00,
2013-06-27 14:23:00,85.0,57.0,-100.00,WNW,295,18.0,27.0,38,0.00,,,0.00,903.000000,,2013-06-27 19:23:00,
2013-06-27 14:34:00,85.0,57.0,-100.00,WNW,295,18.0,27.0,38,0.00,,,0.00,903.000000,,2013-06-27 19:34:00,
2013-06-27 14:42:00,85.0,57.0,-100.00,WNW,295,18.0,27.0,38,0.00,,,0.00,903.000000,,2013-06-27 19:42:00,
2013-06-27 15:11:00,86.0,57.0,-100.00,WNW,286,18.0,26.0,37,0.00,,,-99.99,880.000000,,2013-06-27 20:11:00,
2013-06-27 15:22:00,86.0,57.0,-100.00,WNW,286,18.0,26.0,37,0.00,,,-99.99,880.000000,,2013-06-27 20:22:00,
2013-06-27 15:37:00,86.0,57.0,-100.00,WNW,286,18.0,26.0,37,0.00,,,-99.99,880.000000,,2013-06-27 20:37:00,
2013-06-27 15:45:00,86.0,57.0,-100.00,WNW,286,18.0,26.0,37,0.00,,,-99.99,880.000000,,2013-06-27 20:45:00,
2013-06-27 16:14:00,86.0,54.0,-100.00,WNW,296,18.0,27.0,33,0.00,,,-99.99,817.000000,,2013-06-27 21:14:00,
2013-06-27 16:24:00,86.0,54.0,-100.00,WNW,296,18.0,27.0,33,0.00,,,-99.99,817.000000,,2013-06-27 21:24:00,
2013-06-27 16:36:00,86.0,54.0,-100.00,WNW,296,18.0,27.0,33,0.00,,,-99.99,817.000000,,2013-06-27 21:36:00,
2013-06-27 16:46:00,86.0,54.0,-100.00,WNW,296,18.0,27.0,33,0.00,,,-99.99,817.000000,,2013-06-27 21:46:00,
2013-06-27 17:15:00,85.0,52.0,-100.00,NW,313,16.0,25.0,32,0.00,,,0.00,696.000000,,2013-06-27 22:15:00,
2013-06-27 17:24:00,85.0,52.0,-100.00,NW,313,16.0,25.0,32,0.00,,,0.00,696.000000,,2013-06-27 22:24:00,
2013-06-27 17:35:00,85.0,52.0,-100.00,NW,313,16.0,25.0,32,0.00,,,0.00,696.000000,,2013-06-27 22:35:00,
2013-06-27 17:48:00,85.0,52.0,-100.00,NW,313,16.0,25.0,32,0.00,,,0.00,696.000000,,2013-06-27 22:48:00,
2013-06-27 18:15:00,85.0,52.0,-100.00,NW,305,15.0,27.0,32,0.00,,,0.00,556.000000,,2013-06-27 23:15:00,
2013-06-27 18:25:00,85.0,52.0,-100.00,NW,305,15.0,27.0,32,0.00,,,0.00,556.000000,,2013-06-27 23:25:00,
2013-06-27 18:45:00,85.0,52.0,-100.00,NW,305,15.0,27.0,32,0.00,,,0.00,556.000000,,2013-06-27 23:45:00,
2013-06-27 19:14:00,84.0,51.0,-100.00,NW,311,13.0,23.0,32,0.00,,,-99.99,374.000000,,2013-06-28 00:14:00,
2013-06-27 19:35:00,84.0,51.0,-100.00,NW,311,13.0,23.0,32,0.00,,,-99.99,374.000000,,2013-06-28 00:35:00,
2013-06-27 19:45:00,84.0,51.0,-100.00,NW,311,13.0,23.0,32,0.00,,,-99.99,374.000000,,2013-06-28 00:45:00,
2013-06-27 20:14:00,82.0,55.0,-100.00,NW,305,8.0,19.0,39,0.00,,,0.00,197.000000,,2013-06-28 01:14:00,
2013-06-27 20:25:00,82.0,55.0,-100.00,NW,305,8.0,19.0,39,0.00,,,0.00,197.000000,,2013-06-28 01:25:00,
2013-06-27 20:35:00,82.0,55.0,-100.00,NW,305,8.0,19.0,39,0.00,,,0.00,197.000000,,2013-06-28 01:35:00,
2013-06-27 20:45:00,82.0,55.0,-100.00,NW,305,8.0,19.0,39,0.00,,,0.00,197.000000,,2013-06-28 01:45:00,
2013-06-27 20:49:00,78.0,56.0,-100.00,WNW,289,6.0,11.0,46,0.00,,,0.00,60.000000,,2013-06-28 01:49:00,
2013-06-27 21:17:00,78.0,56.0,-100.00,WNW,289,6.0,11.0,46,0.00,,,0.00,60.000000,,2013-06-28 02:17:00,
2013-06-27 21:27:00,78.0,56.0,-100.00,WNW,289,6.0,11.0,46,0.00,,,0.00,60.000000,,2013-06-28 02:27:00,
2013-06-27 21:36:00,78.0,56.0,-100.00,WNW,289,6.0,11.0,46,0.00,,,0.00,60.000000,,2013-06-28 02:36:00,
2013-06-27 22:14:00,75.0,57.0,-100.00,West,270,4.0,7.0,53,0.00,,,0.00,4.000000,,2013-06-28 03:14:00,
2013-06-27 22:27:00,75.0,57.0,-100.00,West,270,4.0,7.0,53,0.00,,,0.00,4.000000,,2013-06-28 03:27:00,
2013-06-27 22:37:00,75.0,57.0,-100.00,West,270,4.0,7.0,53,0.00,,,0.00,4.000000,,2013-06-28 03:37:00,
2013-06-27 22:44:00,75.0,57.0,-100.00,West,270,4.0,7.0,53,0.00,,,0.00,4.000000,,2013-06-28 03:44:00,
2013-06-27 23:12:00,72.0,58.0,-100.00,WNW,290,7.0,9.0,61,0.00,,,0.00,1.000000,,2013-06-28 04:12:00,
2013-06-27 23:22:00,72.0,58.0,-100.00,WNW,290,7.0,9.0,61,0.00,,,0.00,1.000000,,2013-06-28 04:22:00,
2013-06-27 23:33:00,72.0,58.0,-100.00,WNW,290,7.0,9.0,61,0.00,,,0.00,1.000000,,2013-06-28 04:33:00,
2013-06-27 23:43:00,72.0,58.0,-100.00,WNW,290,7.0,9.0,61,0.00,,,0.00,1.000000,,2013-06-28 04:43:00,